sensor_id;sensor_type;location;lat;lon;timestamp;noise_LAeq;noise_LA_min;noise_LA_max;noise_LA01;noise_LA95
11999;Laerm;40817;51.520;9.954;2024-01-30T00:02:16;44.20;40.62;48.31;;
11999;Laerm;40817;51.520;9.954;2024-01-30T00:04:45;44.01;41.22;49.03;;
11999;Laerm;40817;51.520;9.954;2024-01-30T00:07:12;48.99;43.19;56.92;;
11999;Laerm;40817;51.520;9.954;2024-01-30T00:09:39;45.12;40.33;54.94;;
11999;Laerm;40817;51.520;9.954;2024-01-30T00:12:07;45.58;42.88;53.17;;
11999;Laerm;40817;51.520;9.954;2024-01-30T00:14:34;44.43;41.14;51.48;;
11999;Laerm;40817;51.520;9.954;2024-01-30T00:17:02;44.08;40.89;45.91;;
11999;Laerm;40817;51.520;9.954;2024-01-30T00:19:29;44.01;39.70;48.23;;
11999;Laerm;40817;51.520;9.954;2024-01-30T00:21:57;43.79;39.58;46.76;;
11999;Laerm;40817;51.520;9.954;2024-01-30T00:24:25;44.14;40.89;50.30;;
11999;Laerm;40817;51.520;9.954;2024-01-30T00:26:52;43.88;40.43;45.77;;
11999;Laerm;40817;51.520;9.954;2024-01-30T00:29:19;44.09;41.06;47.86;;
11999;Laerm;40817;51.520;9.954;2024-01-30T00:31:48;44.23;41.06;48.36;;
11999;Laerm;40817;51.520;9.954;2024-01-30T00:34:16;44.01;40.13;48.95;;
11999;Laerm;40817;51.520;9.954;2024-01-30T00:36:43;44.55;40.62;59.09;;
11999;Laerm;40817;51.520;9.954;2024-01-30T00:39:11;46.97;41.06;56.57;;
11999;Laerm;40817;51.520;9.954;2024-01-30T00:41:41;45.45;41.30;54.46;;
11999;Laerm;40817;51.520;9.954;2024-01-30T00:44:08;44.18;41.46;46.38;;
11999;Laerm;40817;51.520;9.954;2024-01-30T00:46:36;43.45;40.13;45.23;;
11999;Laerm;40817;51.520;9.954;2024-01-30T00:49:03;43.79;40.62;50.54;;
11999;Laerm;40817;51.520;9.954;2024-01-30T00:51:30;44.92;40.33;56.35;;
11999;Laerm;40817;51.520;9.954;2024-01-30T00:53:57;43.21;40.13;45.33;;
11999;Laerm;40817;51.520;9.954;2024-01-30T00:56:26;44.63;39.34;53.96;;
11999;Laerm;40817;51.520;9.954;2024-01-30T00:58:54;45.22;42.35;54.36;;
11999;Laerm;40817;51.520;9.954;2024-01-30T01:01:21;45.17;42.35;52.93;;
11999;Laerm;40817;51.520;9.954;2024-01-30T01:03:49;44.90;41.96;51.75;;
11999;Laerm;40817;51.520;9.954;2024-01-30T01:06:16;44.01;40.71;45.75;;
11999;Laerm;40817;51.520;9.954;2024-01-30T01:08:43;44.65;41.38;52.50;;
11999;Laerm;40817;51.520;9.954;2024-01-30T01:11:11;44.05;41.06;46.73;;
11999;Laerm;40817;51.520;9.954;2024-01-30T01:13:39;43.81;39.92;46.02;;
11999;Laerm;40817;51.520;9.954;2024-01-30T01:16:07;44.30;41.14;51.84;;
11999;Laerm;40817;51.520;9.954;2024-01-30T01:18:34;44.15;41.06;46.20;;
11999;Laerm;40817;51.520;9.954;2024-01-30T01:21:01;46.50;40.71;56.09;;
11999;Laerm;40817;51.520;9.954;2024-01-30T01:23:28;45.76;42.47;53.72;;
11999;Laerm;40817;51.520;9.954;2024-01-30T01:25:55;44.75;42.03;52.08;;
11999;Laerm;40817;51.520;9.954;2024-01-30T01:28:25;44.43;41.68;48.67;;
11999;Laerm;40817;51.520;9.954;2024-01-30T01:30:54;44.99;40.98;53.44;;
11999;Laerm;40817;51.520;9.954;2024-01-30T01:33:25;45.00;42.65;51.39;;
11999;Laerm;40817;51.520;9.954;2024-01-30T01:35:52;44.10;40.89;45.72;;
11999;Laerm;40817;51.520;9.954;2024-01-30T01:38:19;43.86;40.80;45.60;;
11999;Laerm;40817;51.520;9.954;2024-01-30T01:40:46;43.67;40.53;45.39;;
11999;Laerm;40817;51.520;9.954;2024-01-30T01:43:13;44.15;41.30;47.38;;
11999;Laerm;40817;51.520;9.954;2024-01-30T01:45:41;44.69;41.14;53.14;;
11999;Laerm;40817;51.520;9.954;2024-01-30T01:48:10;44.30;40.89;46.64;;
11999;Laerm;40817;51.520;9.954;2024-01-30T01:50:38;44.12;40.13;47.34;;
11999;Laerm;40817;51.520;9.954;2024-01-30T01:53:08;44.48;40.98;52.44;;
11999;Laerm;40817;51.520;9.954;2024-01-30T01:55:36;43.86;40.89;46.23;;
11999;Laerm;40817;51.520;9.954;2024-01-30T01:58:05;43.83;40.43;49.63;;
11999;Laerm;40817;51.520;9.954;2024-01-30T02:00:32;43.85;40.33;45.72;;
11999;Laerm;40817;51.520;9.954;2024-01-30T02:03:01;45.21;41.61;53.38;;
11999;Laerm;40817;51.520;9.954;2024-01-30T02:05:31;44.80;41.89;51.53;;
11999;Laerm;40817;51.520;9.954;2024-01-30T02:07:59;45.48;40.62;55.56;;
11999;Laerm;40817;51.520;9.954;2024-01-30T02:10:26;44.23;41.30;46.55;;
11999;Laerm;40817;51.520;9.954;2024-01-30T02:12:53;43.73;40.71;45.33;;
11999;Laerm;40817;51.520;9.954;2024-01-30T02:15:20;43.47;40.23;45.51;;
11999;Laerm;40817;51.520;9.954;2024-01-30T02:17:47;43.52;40.33;45.45;;
11999;Laerm;40817;51.520;9.954;2024-01-30T02:20:15;44.03;41.22;46.96;;
11999;Laerm;40817;51.520;9.954;2024-01-30T02:22:44;44.09;40.98;47.96;;
11999;Laerm;40817;51.520;9.954;2024-01-30T02:25:11;44.34;41.75;47.28;;
11999;Laerm;40817;51.520;9.954;2024-01-30T02:27:39;44.56;40.80;51.67;;
11999;Laerm;40817;51.520;9.954;2024-01-30T02:30:08;44.14;41.38;54.99;;
11999;Laerm;40817;51.520;9.954;2024-01-30T02:32:35;44.66;41.46;68.99;;
11999;Laerm;40817;51.520;9.954;2024-01-30T02:35:04;44.15;40.62;50.67;;
11999;Laerm;40817;51.520;9.954;2024-01-30T02:37:31;44.25;41.68;47.08;;
11999;Laerm;40817;51.520;9.954;2024-01-30T02:39:59;44.43;41.14;48.90;;
11999;Laerm;40817;51.520;9.954;2024-01-30T02:42:27;44.18;41.30;46.97;;
11999;Laerm;40817;51.520;9.954;2024-01-30T02:44:54;43.80;40.23;47.18;;
11999;Laerm;40817;51.520;9.954;2024-01-30T02:47:21;43.52;40.03;45.33;;
11999;Laerm;40817;51.520;9.954;2024-01-30T02:49:48;43.93;40.98;47.65;;
11999;Laerm;40817;51.520;9.954;2024-01-30T02:52:16;44.29;40.53;46.69;;
11999;Laerm;40817;51.520;9.954;2024-01-30T02:54:43;45.18;41.46;67.52;;
11999;Laerm;40817;51.520;9.954;2024-01-30T02:57:11;43.75;40.80;46.28;;
11999;Laerm;40817;51.520;9.954;2024-01-30T02:59:39;43.60;40.71;45.75;;
11999;Laerm;40817;51.520;9.954;2024-01-30T03:02:06;43.67;40.71;45.57;;
11999;Laerm;40817;51.520;9.954;2024-01-30T03:04:33;43.70;40.62;45.54;;
11999;Laerm;40817;51.520;9.954;2024-01-30T03:07:00;44.33;40.33;50.74;;
11999;Laerm;40817;51.520;9.954;2024-01-30T03:09:28;44.38;40.98;47.77;;
11999;Laerm;40817;51.520;9.954;2024-01-30T03:11:55;44.44;41.38;48.46;;
11999;Laerm;40817;51.520;9.954;2024-01-30T03:14:23;44.10;41.14;47.42;;
11999;Laerm;40817;51.520;9.954;2024-01-30T03:16:51;44.91;40.89;50.79;;
11999;Laerm;40817;51.520;9.954;2024-01-30T03:19:18;44.60;42.16;48.12;;
11999;Laerm;40817;51.520;9.954;2024-01-30T03:21:45;44.19;40.79;46.40;;
11999;Laerm;40817;51.520;9.954;2024-01-30T03:24:13;44.30;41.22;48.53;;
11999;Laerm;40817;51.520;9.954;2024-01-30T03:26:40;44.39;41.46;47.72;;
11999;Laerm;40817;51.520;9.954;2024-01-30T03:29:07;44.47;40.89;48.26;;
11999;Laerm;40817;51.520;9.954;2024-01-30T03:31:36;44.28;41.68;46.15;;
11999;Laerm;40817;51.520;9.954;2024-01-30T03:34:03;44.50;41.89;48.37;;
11999;Laerm;40817;51.520;9.954;2024-01-30T03:36:30;44.35;42.03;47.06;;
11999;Laerm;40817;51.520;9.954;2024-01-30T03:38:58;44.64;41.30;60.03;;
11999;Laerm;40817;51.520;9.954;2024-01-30T03:41:26;44.37;41.55;49.30;;
11999;Laerm;40817;51.520;9.954;2024-01-30T03:43:53;44.35;41.30;48.60;;
11999;Laerm;40817;51.520;9.954;2024-01-30T03:46:20;44.01;41.22;47.44;;
11999;Laerm;40817;51.520;9.954;2024-01-30T03:48:49;45.03;41.68;51.61;;
11999;Laerm;40817;51.520;9.954;2024-01-30T03:51:16;44.38;41.30;47.93;;
11999;Laerm;40817;51.520;9.954;2024-01-30T03:53:44;44.16;41.38;46.30;;
11999;Laerm;40817;51.520;9.954;2024-01-30T03:56:12;44.31;41.61;48.74;;
11999;Laerm;40817;51.520;9.954;2024-01-30T03:58:40;44.48;41.61;47.76;;
11999;Laerm;40817;51.520;9.954;2024-01-30T04:01:07;44.92;42.03;48.31;;
11999;Laerm;40817;51.520;9.954;2024-01-30T04:03:34;44.58;42.16;47.55;;
11999;Laerm;40817;51.520;9.954;2024-01-30T04:06:04;44.32;41.89;54.63;;
11999;Laerm;40817;51.520;9.954;2024-01-30T04:08:31;44.67;42.35;48.59;;
11999;Laerm;40817;51.520;9.954;2024-01-30T04:10:58;44.56;41.38;47.06;;
11999;Laerm;40817;51.520;9.954;2024-01-30T04:13:25;44.33;41.96;45.97;;
11999;Laerm;40817;51.520;9.954;2024-01-30T04:15:53;44.40;41.38;47.24;;
11999;Laerm;40817;51.520;9.954;2024-01-30T04:18:21;45.10;42.93;52.17;;
11999;Laerm;40817;51.520;9.954;2024-01-30T04:20:48;44.70;42.29;48.37;;
11999;Laerm;40817;51.520;9.954;2024-01-30T04:23:17;44.61;41.46;53.23;;
11999;Laerm;40817;51.520;9.954;2024-01-30T04:25:44;44.62;42.41;48.61;;
11999;Laerm;40817;51.520;9.954;2024-01-30T04:28:11;45.02;41.75;50.49;;
11999;Laerm;40817;51.520;9.954;2024-01-30T04:30:39;44.55;41.96;47.06;;
11999;Laerm;40817;51.520;9.954;2024-01-30T04:33:06;44.93;42.16;49.13;;
11999;Laerm;40817;51.520;9.954;2024-01-30T04:35:33;45.69;42.53;53.79;;
11999;Laerm;40817;51.520;9.954;2024-01-30T04:38:01;44.61;42.09;54.96;;
11999;Laerm;40817;51.520;9.954;2024-01-30T04:40:29;44.81;41.46;47.84;;
11999;Laerm;40817;51.520;9.954;2024-01-30T04:42:56;44.74;42.22;49.65;;
11999;Laerm;40817;51.520;9.954;2024-01-30T04:45:24;44.63;42.09;47.95;;
11999;Laerm;40817;51.520;9.954;2024-01-30T04:47:51;44.62;42.35;48.52;;
11999;Laerm;40817;51.520;9.954;2024-01-30T04:50:18;44.51;42.29;47.14;;
11999;Laerm;40817;51.520;9.954;2024-01-30T04:52:45;44.58;42.03;46.89;;
11999;Laerm;40817;51.520;9.954;2024-01-30T04:55:13;44.54;42.16;46.55;;
11999;Laerm;40817;51.520;9.954;2024-01-30T04:57:41;44.72;42.09;48.15;;
11999;Laerm;40817;51.520;9.954;2024-01-30T05:00:10;45.08;42.53;52.25;;
11999;Laerm;40817;51.520;9.954;2024-01-30T05:02:38;45.41;42.41;52.34;;
11999;Laerm;40817;51.520;9.954;2024-01-30T05:05:06;44.92;42.03;49.64;;
11999;Laerm;40817;51.520;9.954;2024-01-30T05:07:33;44.66;42.22;47.63;;
11999;Laerm;40817;51.520;9.954;2024-01-30T05:10:01;44.70;41.53;47.30;;
11999;Laerm;40817;51.520;9.954;2024-01-30T05:12:29;44.82;42.35;49.12;;
11999;Laerm;40817;51.520;9.954;2024-01-30T05:14:57;44.74;42.47;48.26;;
11999;Laerm;40817;51.520;9.954;2024-01-30T05:17:24;44.61;42.41;47.83;;
11999;Laerm;40817;51.520;9.954;2024-01-30T05:19:52;45.37;43.19;51.54;;
11999;Laerm;40817;51.520;9.954;2024-01-30T05:22:19;45.30;42.22;51.75;;
11999;Laerm;40817;51.520;9.954;2024-01-30T05:24:46;44.89;42.53;48.84;;
11999;Laerm;40817;51.520;9.954;2024-01-30T05:27:13;45.10;42.88;49.49;;
11999;Laerm;40817;51.520;9.954;2024-01-30T05:29:41;45.09;42.65;48.87;;
11999;Laerm;40817;51.520;9.954;2024-01-30T05:32:09;44.92;42.29;49.43;;
11999;Laerm;40817;51.520;9.954;2024-01-30T05:34:37;45.10;42.22;53.00;;
11999;Laerm;40817;51.520;9.954;2024-01-30T05:37:04;44.94;42.82;47.86;;
11999;Laerm;40817;51.520;9.954;2024-01-30T05:39:31;44.98;42.76;50.45;;
11999;Laerm;40817;51.520;9.954;2024-01-30T05:41:59;45.39;41.46;56.99;;
11999;Laerm;40817;51.520;9.954;2024-01-30T05:44:26;45.19;42.59;49.43;;
11999;Laerm;40817;51.520;9.954;2024-01-30T05:46:54;45.66;43.09;49.79;;
11999;Laerm;40817;51.520;9.954;2024-01-30T05:49:22;46.16;43.29;55.63;;
11999;Laerm;40817;51.520;9.954;2024-01-30T05:51:49;46.63;42.98;54.11;;
11999;Laerm;40817;51.520;9.954;2024-01-30T05:54:17;45.36;42.29;52.45;;
11999;Laerm;40817;51.520;9.954;2024-01-30T05:56:44;45.25;41.89;48.90;;
11999;Laerm;40817;51.520;9.954;2024-01-30T05:59:11;45.07;42.03;48.88;;
11999;Laerm;40817;51.520;9.954;2024-01-30T06:01:45;45.85;43.04;53.21;;
11999;Laerm;40817;51.520;9.954;2024-01-30T06:04:12;45.59;42.41;49.45;;
11999;Laerm;40817;51.520;9.954;2024-01-30T06:06:41;45.89;42.41;55.16;;
11999;Laerm;40817;51.520;9.954;2024-01-30T06:09:08;46.30;42.93;52.34;;
11999;Laerm;40817;51.520;9.954;2024-01-30T06:11:35;45.82;43.19;54.98;;
11999;Laerm;40817;51.520;9.954;2024-01-30T06:14:03;45.40;42.76;51.59;;
11999;Laerm;40817;51.520;9.954;2024-01-30T06:16:30;45.89;43.09;55.00;;
11999;Laerm;40817;51.520;9.954;2024-01-30T06:18:57;46.76;43.04;60.73;;
11999;Laerm;40817;51.520;9.954;2024-01-30T06:21:25;46.27;42.88;53.21;;
11999;Laerm;40817;51.520;9.954;2024-01-30T06:23:54;46.74;43.54;64.69;;
11999;Laerm;40817;51.520;9.954;2024-01-30T06:26:21;46.40;43.24;52.36;;
11999;Laerm;40817;51.520;9.954;2024-01-30T06:28:48;46.18;43.29;52.60;;
11999;Laerm;40817;51.520;9.954;2024-01-30T06:31:16;47.57;42.53;59.92;;
11999;Laerm;40817;51.520;9.954;2024-01-30T06:33:43;45.67;42.98;52.91;;
11999;Laerm;40817;51.520;9.954;2024-01-30T06:36:10;46.24;42.53;57.15;;
11999;Laerm;40817;51.520;9.954;2024-01-30T06:38:37;48.26;43.34;65.33;;
11999;Laerm;40817;51.520;9.954;2024-01-30T06:41:06;46.19;42.35;53.30;;
11999;Laerm;40817;51.520;9.954;2024-01-30T06:43:33;46.16;43.34;50.93;;
11999;Laerm;40817;51.520;9.954;2024-01-30T06:46:00;60.49;43.24;77.88;;
11999;Laerm;40817;51.520;9.954;2024-01-30T06:48:28;45.88;42.53;56.92;;
11999;Laerm;40817;51.520;9.954;2024-01-30T06:50:57;46.04;43.39;58.36;;
11999;Laerm;40817;51.520;9.954;2024-01-30T06:53:24;46.46;43.49;56.09;;
11999;Laerm;40817;51.520;9.954;2024-01-30T06:55:52;47.74;43.19;58.91;;
11999;Laerm;40817;51.520;9.954;2024-01-30T06:58:20;46.49;43.14;58.24;;
11999;Laerm;40817;51.520;9.954;2024-01-30T07:00:48;47.00;42.98;58.36;;
11999;Laerm;40817;51.520;9.954;2024-01-30T07:03:15;50.22;43.19;72.03;;
11999;Laerm;40817;51.520;9.954;2024-01-30T07:05:42;46.24;43.34;51.64;;
11999;Laerm;40817;51.520;9.954;2024-01-30T07:08:10;46.76;43.58;56.92;;
11999;Laerm;40817;51.520;9.954;2024-01-30T07:10:37;46.44;43.49;52.45;;
11999;Laerm;40817;51.520;9.954;2024-01-30T07:13:04;46.23;43.44;53.97;;
11999;Laerm;40817;51.520;9.954;2024-01-30T07:15:33;46.93;43.44;56.93;;
11999;Laerm;40817;51.520;9.954;2024-01-30T07:18:00;47.04;43.72;60.25;;
11999;Laerm;40817;51.520;9.954;2024-01-30T07:20:28;46.38;42.71;52.16;;
11999;Laerm;40817;51.520;9.954;2024-01-30T07:22:57;53.43;43.86;66.31;;
11999;Laerm;40817;51.520;9.954;2024-01-30T07:25:24;48.53;43.44;65.46;;
11999;Laerm;40817;51.520;9.954;2024-01-30T07:27:52;47.38;43.49;52.74;;
11999;Laerm;40817;51.520;9.954;2024-01-30T07:30:20;49.40;43.99;54.47;;
11999;Laerm;40817;51.520;9.954;2024-01-30T07:32:49;49.02;42.93;60.06;;
11999;Laerm;40817;51.520;9.954;2024-01-30T07:35:17;49.99;43.90;61.02;;
11999;Laerm;40817;51.520;9.954;2024-01-30T07:37:44;49.16;43.72;55.35;;
11999;Laerm;40817;51.520;9.954;2024-01-30T07:40:11;47.52;43.54;60.26;;
11999;Laerm;40817;51.520;9.954;2024-01-30T07:42:39;49.41;43.94;62.43;;
11999;Laerm;40817;51.520;9.954;2024-01-30T07:45:07;48.29;43.34;55.69;;
11999;Laerm;40817;51.520;9.954;2024-01-30T07:47:35;48.64;44.03;55.23;;
11999;Laerm;40817;51.520;9.954;2024-01-30T07:50:05;48.53;43.81;66.34;;
11999;Laerm;40817;51.520;9.954;2024-01-30T07:52:32;48.65;43.14;56.37;;
11999;Laerm;40817;51.520;9.954;2024-01-30T07:55:00;48.06;43.34;58.56;;
11999;Laerm;40817;51.520;9.954;2024-01-30T07:57:27;48.72;44.39;55.85;;
11999;Laerm;40817;51.520;9.954;2024-01-30T07:59:54;48.82;43.86;65.26;;
11999;Laerm;40817;51.520;9.954;2024-01-30T08:02:23;55.65;44.35;73.27;;
11999;Laerm;40817;51.520;9.954;2024-01-30T08:04:50;48.21;43.94;63.65;;
11999;Laerm;40817;51.520;9.954;2024-01-30T08:07:18;48.44;43.49;57.10;;
11999;Laerm;40817;51.520;9.954;2024-01-30T08:09:48;47.09;43.19;54.15;;
11999;Laerm;40817;51.520;9.954;2024-01-30T08:12:15;48.75;43.86;55.77;;
11999;Laerm;40817;51.520;9.954;2024-01-30T08:14:43;46.03;43.04;51.66;;
11999;Laerm;40817;51.520;9.954;2024-01-30T08:17:10;48.44;43.63;57.73;;
11999;Laerm;40817;51.520;9.954;2024-01-30T08:19:37;49.64;43.49;70.82;;
11999;Laerm;40817;51.520;9.954;2024-01-30T08:22:04;46.18;42.82;55.14;;
11999;Laerm;40817;51.520;9.954;2024-01-30T08:24:33;46.63;42.93;57.57;;
11999;Laerm;40817;51.520;9.954;2024-01-30T08:27:00;46.90;43.44;54.17;;
11999;Laerm;40817;51.520;9.954;2024-01-30T08:29:28;46.58;42.88;53.63;;
11999;Laerm;40817;51.520;9.954;2024-01-30T08:31:55;48.09;42.41;55.95;;
11999;Laerm;40817;51.520;9.954;2024-01-30T08:34:25;47.27;43.39;55.34;;
11999;Laerm;40817;51.520;9.954;2024-01-30T08:36:52;52.07;43.60;79.39;;
11999;Laerm;40817;51.520;9.954;2024-01-30T08:39:19;46.64;43.04;56.85;;
11999;Laerm;40817;51.520;9.954;2024-01-30T08:41:48;48.60;43.14;55.84;;
11999;Laerm;40817;51.520;9.954;2024-01-30T08:44:15;49.15;43.68;54.59;;
11999;Laerm;40817;51.520;9.954;2024-01-30T08:46:43;48.72;43.90;62.57;;
11999;Laerm;40817;51.520;9.954;2024-01-30T08:49:11;47.50;43.44;54.12;;
11999;Laerm;40817;51.520;9.954;2024-01-30T08:51:39;47.34;43.14;57.97;;
11999;Laerm;40817;51.520;9.954;2024-01-30T08:54:06;45.87;42.98;51.08;;
11999;Laerm;40817;51.520;9.954;2024-01-30T08:56:33;46.46;43.54;54.65;;
11999;Laerm;40817;51.520;9.954;2024-01-30T08:59:02;46.38;43.44;55.44;;
11999;Laerm;40817;51.520;9.954;2024-01-30T09:01:29;52.99;43.72;65.68;;
11999;Laerm;40817;51.520;9.954;2024-01-30T09:03:56;52.18;43.54;65.01;;
11999;Laerm;40817;51.520;9.954;2024-01-30T09:06:24;50.55;43.68;61.64;;
11999;Laerm;40817;51.520;9.954;2024-01-30T09:08:52;49.62;43.72;64.39;;
11999;Laerm;40817;51.520;9.954;2024-01-30T09:11:19;46.40;43.44;56.70;;
11999;Laerm;40817;51.520;9.954;2024-01-30T09:13:47;47.95;43.29;61.61;;
11999;Laerm;40817;51.520;9.954;2024-01-30T09:16:15;48.69;43.34;75.35;;
11999;Laerm;40817;51.520;9.954;2024-01-30T09:18:43;47.81;43.14;60.23;;
11999;Laerm;40817;51.520;9.954;2024-01-30T09:21:10;46.70;42.65;59.19;;
11999;Laerm;40817;51.520;9.954;2024-01-30T09:23:37;46.71;42.41;60.85;;
11999;Laerm;40817;51.520;9.954;2024-01-30T09:26:05;46.45;43.04;62.15;;
11999;Laerm;40817;51.520;9.954;2024-01-30T09:28:32;47.40;41.82;68.58;;
11999;Laerm;40817;51.520;9.954;2024-01-30T09:30:59;46.23;42.82;52.00;;
11999;Laerm;40817;51.520;9.954;2024-01-30T09:33:28;46.16;42.59;51.37;;
11999;Laerm;40817;51.520;9.954;2024-01-30T09:35:55;45.89;43.19;50.59;;
11999;Laerm;40817;51.520;9.954;2024-01-30T09:38:22;46.17;42.58;57.66;;
11999;Laerm;40817;51.520;9.954;2024-01-30T09:40:55;46.31;42.98;54.60;;
11999;Laerm;40817;51.520;9.954;2024-01-30T09:43:23;47.52;43.77;60.85;;
11999;Laerm;40817;51.520;9.954;2024-01-30T09:45:51;46.68;43.24;54.52;;
11999;Laerm;40817;51.520;9.954;2024-01-30T09:48:20;46.67;43.04;55.73;;
11999;Laerm;40817;51.520;9.954;2024-01-30T09:50:49;52.54;43.86;66.05;;
11999;Laerm;40817;51.520;9.954;2024-01-30T09:53:17;53.46;43.44;73.96;;
11999;Laerm;40817;51.520;9.954;2024-01-30T09:55:44;46.54;43.44;54.01;;
11999;Laerm;40817;51.520;9.954;2024-01-30T09:58:12;46.29;43.14;52.90;;
11999;Laerm;40817;51.520;9.954;2024-01-30T10:00:40;46.29;43.19;53.61;;
11999;Laerm;40817;51.520;9.954;2024-01-30T10:03:07;46.12;42.82;61.22;;
11999;Laerm;40817;51.520;9.954;2024-01-30T10:05:36;47.22;43.29;60.76;;
11999;Laerm;40817;51.520;9.954;2024-01-30T10:08:08;45.92;42.90;51.32;;
11999;Laerm;40817;51.520;9.954;2024-01-30T10:10:35;45.78;42.93;51.90;;
11999;Laerm;40817;51.520;9.954;2024-01-30T10:13:03;46.30;43.04;53.13;;
11999;Laerm;40817;51.520;9.954;2024-01-30T10:15:30;45.71;42.98;53.17;;
11999;Laerm;40817;51.520;9.954;2024-01-30T10:17:58;46.21;42.35;59.66;;
11999;Laerm;40817;51.520;9.954;2024-01-30T10:20:25;46.31;43.44;52.55;;
11999;Laerm;40817;51.520;9.954;2024-01-30T10:22:53;47.81;43.04;64.64;;
11999;Laerm;40817;51.520;9.954;2024-01-30T10:25:23;47.70;43.14;62.73;;
11999;Laerm;40817;51.520;9.954;2024-01-30T10:27:53;46.76;42.71;57.39;;
11999;Laerm;40817;51.520;9.954;2024-01-30T10:30:21;47.05;43.44;57.31;;
11999;Laerm;40817;51.520;9.954;2024-01-30T10:32:49;46.46;42.29;56.51;;
11999;Laerm;40817;51.520;9.954;2024-01-30T10:35:17;46.98;43.29;58.88;;
11999;Laerm;40817;51.520;9.954;2024-01-30T10:37:44;45.96;42.22;51.84;;
11999;Laerm;40817;51.520;9.954;2024-01-30T10:40:14;46.20;42.71;57.67;;
11999;Laerm;40817;51.520;9.954;2024-01-30T10:42:46;50.97;43.34;64.06;;
11999;Laerm;40817;51.520;9.954;2024-01-30T10:45:14;46.76;43.04;54.01;;
11999;Laerm;40817;51.520;9.954;2024-01-30T10:47:48;46.29;43.09;53.78;;
11999;Laerm;40817;51.520;9.954;2024-01-30T10:50:16;46.08;42.76;56.26;;
11999;Laerm;40817;51.520;9.954;2024-01-30T10:52:43;46.90;42.82;60.08;;
11999;Laerm;40817;51.520;9.954;2024-01-30T10:55:12;46.22;43.19;57.58;;
11999;Laerm;40817;51.520;9.954;2024-01-30T10:57:39;45.86;42.93;56.73;;
11999;Laerm;40817;51.520;9.954;2024-01-30T11:00:11;52.41;43.04;74.03;;
11999;Laerm;40817;51.520;9.954;2024-01-30T11:02:42;56.33;44.07;67.82;;
11999;Laerm;40817;51.520;9.954;2024-01-30T11:05:10;45.96;42.71;53.56;;
11999;Laerm;40817;51.520;9.954;2024-01-30T11:07:40;45.69;42.65;53.52;;
11999;Laerm;40817;51.520;9.954;2024-01-30T11:10:08;45.36;42.71;58.89;;
11999;Laerm;40817;51.520;9.954;2024-01-30T11:12:40;45.32;42.35;56.43;;
11999;Laerm;40817;51.520;9.954;2024-01-30T11:15:13;46.10;42.53;63.63;;
11999;Laerm;40817;51.520;9.954;2024-01-30T11:17:50;46.36;42.76;61.77;;
11999;Laerm;40817;51.520;9.954;2024-01-30T11:20:21;48.35;43.24;58.75;;
11999;Laerm;40817;51.520;9.954;2024-01-30T11:22:52;46.88;42.88;59.71;;
11999;Laerm;40817;51.520;9.954;2024-01-30T11:25:21;48.36;42.16;62.99;;
11999;Laerm;40817;51.520;9.954;2024-01-30T11:27:51;45.83;42.59;51.69;;
11999;Laerm;40817;51.520;9.954;2024-01-30T11:30:24;45.45;42.76;53.92;;
11999;Laerm;40817;51.520;9.954;2024-01-30T11:33:03;45.23;42.53;50.27;;
11999;Laerm;40817;51.520;9.954;2024-01-30T11:35:33;45.26;42.41;52.81;;
11999;Laerm;40817;51.520;9.954;2024-01-30T11:38:02;45.21;42.53;52.15;;
11999;Laerm;40817;51.520;9.954;2024-01-30T11:40:31;45.42;42.41;53.42;;
11999;Laerm;40817;51.520;9.954;2024-01-30T11:43:01;55.59;43.37;68.28;;
11999;Laerm;40817;51.520;9.954;2024-01-30T11:45:31;47.71;42.65;59.21;;
11999;Laerm;40817;51.520;9.954;2024-01-30T11:47:59;45.50;42.29;53.23;;
11999;Laerm;40817;51.520;9.954;2024-01-30T11:50:29;45.34;42.85;53.37;;
11999;Laerm;40817;51.520;9.954;2024-01-30T11:52:57;45.45;42.35;54.32;;
11999;Laerm;40817;51.520;9.954;2024-01-30T11:55:25;47.71;42.88;60.71;;
11999;Laerm;40817;51.520;9.954;2024-01-30T11:57:55;45.22;41.61;50.83;;
11999;Laerm;40817;51.520;9.954;2024-01-30T12:00:23;45.03;42.71;48.92;;
11999;Laerm;40817;51.520;9.954;2024-01-30T12:02:53;44.95;42.71;49.18;;
11999;Laerm;40817;51.520;9.954;2024-01-30T12:05:23;46.59;42.35;59.35;;
11999;Laerm;40817;51.520;9.954;2024-01-30T12:07:51;48.42;42.59;70.10;;
11999;Laerm;40817;51.520;9.954;2024-01-30T12:10:18;48.47;42.71;60.05;;
11999;Laerm;40817;51.520;9.954;2024-01-30T12:12:48;46.30;42.47;53.47;;
11999;Laerm;40817;51.520;9.954;2024-01-30T12:15:19;49.73;42.71;63.72;;
11999;Laerm;40817;51.520;9.954;2024-01-30T12:17:48;45.98;42.47;60.88;;
11999;Laerm;40817;51.520;9.954;2024-01-30T12:20:19;46.35;42.82;57.66;;
11999;Laerm;40817;51.520;9.954;2024-01-30T12:22:49;45.83;42.29;53.82;;
11999;Laerm;40817;51.520;9.954;2024-01-30T12:25:20;45.07;42.03;53.17;;
11999;Laerm;40817;51.520;9.954;2024-01-30T12:27:50;45.72;42.41;58.88;;
11999;Laerm;40817;51.520;9.954;2024-01-30T12:30:19;44.94;41.82;60.76;;
11999;Laerm;40817;51.520;9.954;2024-01-30T12:32:50;47.19;42.47;60.43;;
11999;Laerm;40817;51.520;9.954;2024-01-30T12:35:20;45.83;42.16;58.13;;
11999;Laerm;40817;51.520;9.954;2024-01-30T12:37:49;45.14;42.22;59.20;;
11999;Laerm;40817;51.520;9.954;2024-01-30T12:40:17;46.53;42.35;52.70;;
11999;Laerm;40817;51.520;9.954;2024-01-30T12:42:47;45.50;41.96;56.11;;
11999;Laerm;40817;51.520;9.954;2024-01-30T12:45:16;45.03;42.09;54.62;;
11999;Laerm;40817;51.520;9.954;2024-01-30T12:47:46;45.43;42.16;54.51;;
11999;Laerm;40817;51.520;9.954;2024-01-30T12:50:13;45.40;42.41;60.55;;
11999;Laerm;40817;51.520;9.954;2024-01-30T12:52:43;45.14;42.35;53.89;;
11999;Laerm;40817;51.520;9.954;2024-01-30T12:55:11;45.96;42.29;60.03;;
11999;Laerm;40817;51.520;9.954;2024-01-30T12:57:38;45.78;41.53;57.35;;
11999;Laerm;40817;51.520;9.954;2024-01-30T13:00:10;45.25;42.35;51.29;;
11999;Laerm;40817;51.520;9.954;2024-01-30T13:02:38;45.20;41.53;52.92;;
11999;Laerm;40817;51.520;9.954;2024-01-30T13:05:05;45.36;41.89;58.11;;
11999;Laerm;40817;51.520;9.954;2024-01-30T13:07:33;45.37;42.22;55.53;;
11999;Laerm;40817;51.520;9.954;2024-01-30T13:10:03;46.44;41.46;59.32;;
11999;Laerm;40817;51.520;9.954;2024-01-30T13:12:31;51.62;43.29;63.39;;
11999;Laerm;40817;51.520;9.954;2024-01-30T13:14:59;50.35;42.47;60.28;;
11999;Laerm;40817;51.520;9.954;2024-01-30T13:17:27;49.82;42.65;58.83;;
11999;Laerm;40817;51.520;9.954;2024-01-30T13:19:54;49.22;42.35;61.69;;
11999;Laerm;40817;51.520;9.954;2024-01-30T13:22:21;47.48;42.76;57.70;;
11999;Laerm;40817;51.520;9.954;2024-01-30T13:24:49;49.43;42.29;59.35;;
11999;Laerm;40817;51.520;9.954;2024-01-30T13:27:18;49.13;42.16;65.35;;
11999;Laerm;40817;51.520;9.954;2024-01-30T13:29:45;45.88;42.29;54.41;;
11999;Laerm;40817;51.520;9.954;2024-01-30T13:32:12;46.00;41.89;61.09;;
11999;Laerm;40817;51.520;9.954;2024-01-30T13:34:39;46.06;42.22;61.64;;
11999;Laerm;40817;51.520;9.954;2024-01-30T13:37:07;48.15;41.68;58.68;;
11999;Laerm;40817;51.520;9.954;2024-01-30T13:39:34;47.49;41.75;55.20;;
11999;Laerm;40817;51.520;9.954;2024-01-30T13:42:01;48.34;42.22;58.69;;
11999;Laerm;40817;51.520;9.954;2024-01-30T13:44:30;45.30;41.46;52.05;;
11999;Laerm;40817;51.520;9.954;2024-01-30T13:46:57;45.36;42.29;52.22;;
11999;Laerm;40817;51.520;9.954;2024-01-30T13:49:24;46.61;41.75;59.08;;